createdAt,value
2023-05-14T00:04:22.548Z,42.40
2023-05-14T00:09:20.703Z,42.91
2023-05-14T00:14:20.240Z,43.43
2023-05-14T00:19:18.230Z,43.95
2023-05-14T00:24:20.471Z,44.07
2023-05-14T00:29:16.597Z,44.29
2023-05-14T00:34:15.916Z,44.79
2023-05-14T00:39:15.043Z,45.01
2023-05-14T00:44:14.400Z,45.42
2023-05-14T00:49:14.512Z,45.62
2023-05-14T00:54:12.816Z,45.42
2023-05-14T00:59:12.133Z,45.54
2023-05-14T01:04:11.450Z,45.94
2023-05-14T01:09:11.902Z,45.94
2023-05-14T01:14:10.995Z,46.16
2023-05-14T01:19:09.183Z,46.36
2023-05-14T01:24:08.306Z,46.26
2023-05-14T01:29:07.653Z,46.46
2023-05-14T01:34:06.974Z,46.68
2023-05-14T01:39:06.094Z,46.58
2023-05-14T01:44:05.409Z,46.36
2023-05-14T01:49:05.710Z,45.96
2023-05-14T01:54:06.028Z,46.58
2023-05-14T01:59:04.365Z,47.11
2023-05-14T02:04:03.471Z,47.11
2023-05-14T02:09:01.827Z,47.63
2023-05-14T02:14:01.944Z,47.83
2023-05-14T02:19:01.300Z,47.83
2023-05-14T02:23:59.399Z,47.73
2023-05-14T02:28:59.724Z,47.63
2023-05-14T02:33:58.049Z,48.16
2023-05-14T02:38:57.353Z,48.35
2023-05-14T02:43:57.651Z,48.25
2023-05-14T02:48:55.975Z,48.35
2023-05-14T02:53:55.300Z,48.25
2023-05-14T02:58:55.600Z,48.68
2023-05-14T03:03:53.871Z,48.58
2023-05-14T03:08:53.149Z,48.35
2023-05-14T03:13:52.406Z,48.88
2023-05-14T03:18:51.685Z,48.98
2023-05-14T03:23:51.911Z,48.98
2023-05-14T03:28:51.183Z,49.30
2023-05-14T03:33:51.401Z,49.30
2023-05-14T03:38:48.611Z,49.21
2023-05-14T03:43:48.867Z,49.30
2023-05-14T03:48:47.120Z,48.80
2023-05-14T03:53:47.262Z,49.10
2023-05-14T03:58:45.462Z,49.10
2023-05-14T04:03:44.833Z,49.10
2023-05-14T04:08:43.934Z,49.53
2023-05-14T04:13:44.187Z,49.73
2023-05-14T04:18:42.433Z,49.63
2023-05-14T04:23:41.661Z,49.93
2023-05-14T04:28:41.906Z,50.03
2023-05-14T04:33:40.129Z,50.23
2023-05-14T04:38:39.341Z,50.33
2023-05-14T04:43:38.573Z,50.63
2023-05-14T04:48:37.808Z,50.53
2023-05-14T04:53:38.046Z,49.93
2023-05-14T04:58:36.292Z,50.63
2023-05-14T05:03:35.586Z,50.23
2023-05-14T05:08:34.819Z,51.04
2023-05-14T05:13:34.049Z,51.36
2023-05-14T05:18:33.304Z,51.06
2023-05-14T05:23:32.571Z,51.06
2023-05-14T05:28:35.811Z,51.24
2023-05-14T05:33:30.025Z,51.64
2023-05-14T05:38:30.244Z,51.36
2023-05-14T05:43:29.465Z,51.16
2023-05-14T05:48:28.716Z,51.34
2023-05-14T05:53:27.954Z,50.73
2023-05-14T05:58:27.208Z,50.43
2023-05-14T06:03:27.421Z,49.21
2023-05-14T06:08:25.641Z,49.60
2023-05-14T06:13:24.901Z,49.83
2023-05-14T06:18:24.070Z,50.53
2023-05-14T06:23:26.297Z,50.96
2023-05-14T06:28:22.542Z,50.53
2023-05-14T06:33:21.762Z,50.33
2023-05-14T06:38:20.985Z,50.76
2023-05-14T06:43:20.264Z,50.63
2023-05-14T06:48:19.629Z,49.93
2023-05-14T06:53:18.653Z,49.83
2023-05-14T06:58:17.867Z,49.93
2023-05-14T14:53:04.307Z,40.20
2023-05-14T14:58:03.664Z,39.06
2023-05-14T15:03:04.001Z,39.25
2023-05-14T15:08:02.203Z,39.47
2023-05-14T15:13:03.477Z,39.65
2023-05-14T15:18:01.002Z,39.55
2023-05-14T15:23:00.010Z,39.75
2023-05-14T15:27:59.212Z,39.36
2023-05-14T15:32:58.339Z,38.32
2023-05-14T15:37:57.731Z,38.82
2023-05-14T15:43:03.304Z,43.11
2023-05-14T15:47:56.140Z,43.80
2023-05-14T15:52:57.338Z,47.48
2023-05-14T15:57:55.532Z,47.58
2023-05-14T16:02:53.881Z,48.02
2023-05-14T16:07:53.001Z,47.08
2023-05-14T16:12:52.204Z,46.36
2023-05-14T16:17:51.617Z,47.88
2023-05-14T16:22:51.819Z,42.01
2023-05-14T16:27:50.101Z,45.37
2023-05-14T16:32:49.476Z,42.27
2023-05-14T16:37:48.580Z,40.38
2023-05-14T16:42:49.439Z,40.38
2023-05-14T16:47:47.114Z,43.15
2023-05-14T16:52:47.389Z,44.31
2023-05-14T16:57:45.734Z,44.18
2023-05-14T17:02:45.127Z,44.60
2023-05-14T17:07:45.364Z,43.29
2023-05-14T17:12:45.673Z,45.32
2023-05-14T17:17:44.995Z,45.76
2023-05-14T17:22:41.280Z,45.94
2023-05-14T17:27:41.364Z,45.44
2023-05-14T17:32:41.818Z,45.54
2023-05-14T17:37:40.048Z,43.68
2023-05-14T17:42:41.432Z,46.98
2023-05-14T17:47:38.667Z,48.52
2023-05-14T17:52:38.005Z,49.69
2023-05-14T17:57:38.220Z,53.39
2023-05-14T18:02:36.512Z,52.42
2023-05-14T18:07:35.765Z,55.32
2023-05-14T18:12:36.931Z,58.30
2023-05-14T18:17:36.221Z,47.02
2023-05-14T18:22:33.521Z,44.62
2023-05-14T18:27:32.768Z,44.65
2023-05-14T18:32:32.079Z,44.67
2023-05-14T18:37:32.249Z,43.79
2023-05-14T18:42:30.552Z,42.45
2023-05-14T18:47:29.892Z,44.54
2023-05-14T18:52:29.049Z,44.65
2023-05-14T18:57:28.155Z,41.09
2023-05-14T19:02:28.495Z,40.28
2023-05-14T19:07:26.605Z,39.69
2023-05-14T19:12:26.898Z,43.33
2023-05-14T19:17:25.218Z,42.67
2023-05-14T19:22:24.513Z,41.09
2023-05-14T19:27:23.649Z,39.87
2023-05-14T19:32:23.767Z,37.79
2023-05-14T19:37:22.936Z,39.06
2023-05-14T19:42:22.261Z,39.45
2023-05-14T19:47:20.535Z,39.06
2023-05-14T19:52:20.794Z,38.85
2023-05-14T19:57:20.036Z,38.66
2023-05-14T20:02:19.350Z,39.17
2023-05-14T20:07:17.644Z,40.52
2023-05-14T20:12:18.894Z,39.33
2023-05-14T20:17:18.153Z,41.99
2023-05-14T20:22:15.462Z,40.42
2023-05-14T20:27:15.776Z,40.11
2023-05-14T20:32:12.847Z,39.79
2023-05-14T20:37:13.040Z,39.57
2023-05-14T20:42:14.315Z,39.49
2023-05-14T20:47:11.519Z,39.49
2023-05-14T20:52:10.585Z,40.74
2023-05-14T20:57:11.585Z,39.36
2023-05-14T21:02:10.951Z,38.96
2023-05-14T21:07:08.907Z,38.66
2023-05-14T21:12:08.123Z,38.96
2023-05-14T21:17:06.345Z,39.07
2023-05-14T21:22:05.580Z,37.51
2023-05-14T21:27:04.830Z,37.49
2023-05-14T21:32:05.136Z,36.77
2023-05-14T21:37:03.361Z,36.06
2023-05-14T21:42:02.593Z,36.36
2023-05-14T21:47:01.808Z,36.25
2023-05-14T21:52:01.037Z,35.27
2023-05-14T21:57:00.304Z,35.35
2023-05-14T22:06:58.846Z,35.24
2023-05-14T22:11:58.073Z,33.62
2023-05-14T22:16:57.344Z,33.61
2023-05-14T22:21:56.609Z,33.61
2023-05-14T22:26:55.795Z,34.22
2023-05-14T22:31:55.062Z,34.23
2023-05-14T22:36:55.097Z,33.61
2023-05-14T22:41:53.380Z,33.20
2023-05-14T22:46:53.761Z,33.49
2023-05-14T22:51:51.921Z,33.70
2023-05-14T22:56:51.256Z,32.98
2023-05-14T23:01:49.422Z,33.56
2023-05-14T23:06:50.518Z,33.97
2023-05-14T23:11:49.809Z,34.27
2023-05-14T23:16:48.961Z,34.46
2023-05-14T23:21:47.198Z,35.09
2023-05-14T23:26:46.506Z,35.40
2023-05-14T23:31:45.749Z,36.68
2023-05-14T23:36:44.998Z,37.41
2023-05-14T23:41:45.237Z,38.24
2023-05-14T23:46:43.510Z,37.84
2023-05-14T23:51:42.795Z,38.39
2023-05-14T23:56:43.084Z,40.10
